Flight Track Log - Related Links

Times and Time Zones

All times are in EDT time to prevent confusion due to time zone crossing. See the UAL527 flight status page for this flight to view local times or setup timezone preferences in your user account.

Time Position Orientation Groundspeed Altitude Reporting Facility
EDT Latitude Longitude Course Direction KTS MPH feet Rate Location/Type
Sat 05:52:14 PM 32.9000 -97.0167 57° Northeast 141 162 1,000  Level Dallas / Fort Worth TRACON
Sat 05:53:02 PM 32.8667 -97.0167 180° South 149 171 2,700 2,118 Climbing Dallas / Fort Worth TRACON
Sat 05:53:56 PM 32.8167 -97.0000 164° South 217 250 4,600 2,389 Climbing Dallas / Fort Worth TRACON
Sat 05:54:50 PM 32.7667 -96.9833 164° South 277 319 7,000 3,200 Climbing Dallas / Fort Worth TRACON
Sat 05:55:00 PM 32.8132 -96.7423 53° Northeast  Level FlightAware Approximate
Sat 05:55:56 PM 32.7333 -96.9000 115° Southeast 289 333 11,000  Level Dallas / Fort Worth TRACON
Sat 05:56:00 PM 32.8836 -96.6331 52° Northeast  Level FlightAware Approximate
Sat 05:57:00 PM 32.9548 -96.5245 57° Northeast  Level FlightAware Approximate
Sat 05:58:13 PM 32.9050 -96.8219 21° North 329 379 16,800  Level Fort Worth Center
Sat 05:59:13 PM 32.9944 -96.7594 30° Northeast 324 373 17,000 1,050 Climbing Fort Worth Center
Sat 06:00:13 PM 32.9836 -96.6606 97° East 283 326 18,900 2,050 Climbing Fort Worth Center
Sat 06:01:13 PM 32.9392 -96.5594 118° Southeast 297 342 21,100 2,000 Climbing Fort Worth Center
Sat 06:02:13 PM 32.8694 -96.4586 129° Southeast 317 365 22,900 950 Climbing Fort Worth Center
Sat 06:03:13 PM 32.8936 -96.3422 76° East 337 388 23,000 50 Climbing Fort Worth Center
Sat 06:04:13 PM 32.9719 -96.2322 50° Northeast 358 412 23,000  Level Fort Worth Center
Sat 06:05:14 PM 33.0525 -96.1369 45° Northeast 400 460 23,000 150 Level Fort Worth Center
Sat 06:06:13 PM 33.1308 -96.0467 44° Northeast 411 473 23,300 1,059 Climbing Fort Worth Center
Sat 06:07:13 PM 33.2131 -95.9461 46° Northeast 416 479 25,100 1,636 Climbing Fort Worth Center
Sat 06:08:14 PM 33.2953 -95.8378 48° Northeast 421 484 26,600 1,400 Climbing Fort Worth Center
Sat 06:09:13 PM 33.2997 -95.6911 88° East 407 468 27,900 1,361 Climbing Fort Worth Center
Sat 06:10:13 PM 33.3122 -95.5417 84° East 424 488 29,300 1,250 Climbing Fort Worth Center
Sat 06:11:13 PM 33.3558 -95.3917 71° East 448 516 30,400 1,550 Climbing Fort Worth Center
Sat 06:12:13 PM 33.4008 -95.2264 72° East 460 529 32,400 1,650 Climbing Fort Worth Center
Sat 06:13:13 PM 33.4464 -95.0783 70° East 465 535 33,700 1,289 Climbing Fort Worth Center
Sat 06:14:14 PM 33.4914 -94.9303 70° East 470 541 35,000 650 Climbing Fort Worth Center
Sat 06:15:13 PM 33.5344 -94.7794 71° East 470 541 35,000 454 Level Fort Worth Center
Sat 06:16:13 PM 33.5769 -94.6311 71° East 470 541 35,900 1,104 Climbing Fort Worth Center
Sat 06:17:56 PM 33.6442 -94.3944 71° East 466 536 38,000 1,104 Climbing Memphis Center
Sat 06:18:56 PM 33.6864 -94.2467 71° East 466 536 38,900 500 Climbing Memphis Center
Sat 06:19:56 PM 33.7469 -94.1119 62° Northeast 461 531 39,000 50 Climbing Memphis Center
Sat 06:20:56 PM 33.8114 -93.9772 60° Northeast 455 524 39,000  Level Memphis Center
Sat 06:21:56 PM 33.9003 -93.8658 46° Northeast 455 524 39,000  Level Memphis Center
Sat 06:22:56 PM 34.0167 -93.8028 24° Northeast 443 510 39,000  Level Memphis Center
Sat 06:23:56 PM 34.1311 -93.7372 25° Northeast 443 510 39,000  Level Memphis Center
Sat 06:24:56 PM 34.2436 -93.6739 25° Northeast 443 510 39,000  Level Memphis Center
Sat 06:25:56 PM 34.3539 -93.6050 27° Northeast 443 510 39,000  Level Memphis Center
Sat 06:26:56 PM 34.4619 -93.5361 28° Northeast 438 504 39,000  Level Memphis Center
Sat 06:27:56 PM 34.5761 -93.4772 23° Northeast 432 497 39,000 -50 Level Memphis Center
Sat 06:28:56 PM 34.6861 -93.4156 25° Northeast 432 497 38,900  Descending Memphis Center
Sat 06:29:56 PM 34.7983 -93.3489 26° Northeast 432 497 39,000 50 Climbing Memphis Center
Sat 06:30:56 PM 34.9083 -93.2869 25° Northeast 432 497 39,000  Level Memphis Center
Sat 06:31:56 PM 35.0206 -93.2222 25° Northeast 432 497 39,000  Level Memphis Center
Sat 06:32:56 PM 35.1386 -93.1603 23° Northeast 432 497 39,000  Level Memphis Center
Sat 06:33:56 PM 35.2486 -93.0928 27° Northeast 437 503 39,000  Level Memphis Center
Sat 06:34:56 PM 35.3606 -93.0303 24° Northeast 442 509 39,000 -50 Level Memphis Center
Sat 06:35:56 PM 35.4783 -92.9806 19° North 442 509 38,900  Descending Memphis Center
Sat 06:36:56 PM 35.5825 -92.8944 34° Northeast 442 509 39,000 50 Climbing Memphis Center
Sat 06:37:56 PM 35.7047 -92.8214 26° Northeast 442 509 39,000  Level Memphis Center
Sat 06:38:56 PM 35.8144 -92.7556 26° Northeast 442 509 39,000  Level Memphis Center
Sat 06:39:56 PM 35.9242 -92.6897 26° Northeast 436 502 39,000  Level Memphis Center
Sat 06:40:56 PM 36.0358 -92.6236 26° Northeast 430 495 39,000  Level Memphis Center
Sat 06:41:56 PM 36.1497 -92.5572 25° Northeast 430 495 39,000  Level Memphis Center
Sat 06:42:56 PM 36.2636 -92.4856 27° Northeast 430 495 39,000  Level Memphis Center
Sat 06:43:56 PM 36.3772 -92.4189 25° Northeast 435 501 39,000  Level Memphis Center
Sat 06:44:56 PM 36.4908 -92.3497 26° Northeast 441 507 39,000  Level Memphis Center
Sat 06:45:56 PM 36.6044 -92.2825 25° Northeast 446 513 39,000  Level Memphis Center
Sat 06:46:49 PM 36.6944 -92.2186 30° Northeast 458 527 39,000  Level Kansas City Center
Sat 06:47:50 PM 36.8092 -92.1506 25° Northeast 457 526 39,000  Level Kansas City Center
Sat 06:48:53 PM 36.9233 -92.0800 26° Northeast 456 525 39,000  Level Kansas City Center
Sat 06:49:54 PM 37.0361 -92.0125 26° Northeast 453 521 39,000  Level Kansas City Center
Sat 06:50:55 PM 37.1481 -91.9450 26° Northeast 449 517 39,000  Level Kansas City Center
Sat 06:51:55 PM 37.2836 -91.8625 26° Northeast 451 519 39,000  Level Kansas City Center
Sat 06:52:57 PM 37.3975 -91.7917 26° Northeast 455 524 39,000  Level Kansas City Center
Sat 06:53:58 PM 37.5100 -91.7208 27° Northeast 454 522 39,000  Level Kansas City Center
Sat 06:54:59 PM 37.6222 -91.6517 26° Northeast 451 519 39,000 -49 Level Kansas City Center
Sat 06:56:00 PM 37.7342 -91.5808 27° Northeast 452 520 38,900  Descending Kansas City Center
Sat 06:57:00 PM 37.8483 -91.5106 26° Northeast 455 524 39,000 48 Climbing Kansas City Center
Sat 06:58:04 PM 37.9628 -91.4381 27° Northeast 459 528 39,000 -439 Level Kansas City Center
Sat 06:59:03 PM 38.0775 -91.3650 27° Northeast 461 531 38,100 -927 Descending Kansas City Center
Sat 07:00:07 PM 38.2042 -91.2850 26° Northeast 467 537 37,100 -528 Descending Kansas City Center
Sat 07:01:08 PM 38.3194 -91.2103 27° Northeast 466 536 37,000 -49 Descending Kansas City Center
Sat 07:02:09 PM 38.4325 -91.1211 32° Northeast 475 547 37,000  Level Kansas City Center
Sat 07:03:12 PM 38.5458 -91.0344 31° Northeast 474 545 37,000  Level Kansas City Center
Sat 07:04:13 PM 38.6622 -90.9514 29° Northeast 475 547 37,000 -492 Level Kansas City Center
Sat 07:05:14 PM 38.7778 -90.8678 29° Northeast 475 547 36,000 -992 Descending Kansas City Center
Sat 07:06:14 PM 38.8936 -90.7858 29° Northeast 471 542 35,000 -496 Descending Kansas City Center
Sat 07:07:15 PM 39.0086 -90.6972 31° Northeast 475 547 35,000 -726 Level Kansas City Center
Sat 07:08:18 PM 39.1450 -90.5919 31° Northeast 474 545 33,500 -968 Descending Kansas City Center
Sat 07:09:19 PM 39.2572 -90.5128 29° Northeast 462 532 33,000 -246 Descending Kansas City Center
Sat 07:10:20 PM 39.3628 -90.4322 31° Northeast 446 513 33,000  Level Kansas City Center
Sat 07:11:21 PM 39.4675 -90.3431 33° Northeast 447 514 33,000  Level Kansas City Center
Sat 07:12:21 PM 39.5747 -90.2519 33° Northeast 456 525 33,000  Level Kansas City Center
Sat 07:13:22 PM 39.6800 -90.1531 36° Northeast 464 534 33,000  Level Kansas City Center
Sat 07:14:22 PM 39.7689 -90.0522 41° Northeast 467 537 33,000  Level Kansas City Center
Sat 07:15:25 PM 39.8989 -89.9339 35° Northeast 476 548 33,000  Level Kansas City Center
Sat 07:16:26 PM 40.0150 -89.8522 28° Northeast 476 548 33,000 -49 Level Kansas City Center
Sat 07:17:28 PM 40.1303 -89.7683 29° Northeast 475 547 32,900 -600 Descending Kansas City Center
Sat 07:18:26 PM 40.2444 -89.6833 30° Northeast 475 547 31,800 -1,350 Descending Kansas City Center
Sat 07:19:28 PM 40.3589 -89.5978 30° Northeast 476 548 30,200 -1,500 Descending Kansas City Center
Sat 07:20:30 PM 40.4711 -89.5131 30° Northeast 473 544 28,700 -1,452 Descending Kansas City Center
Sat 07:21:32 PM 40.5811 -89.4319 29° Northeast 463 533 27,200 -1,512 Descending Kansas City Center
Sat 07:22:33 PM 40.6875 -89.3503 30° Northeast 452 520 25,600 -1,466 Descending Kansas City Center
Sat 07:23:43 PM 40.8114 -89.2575 30° Northeast 432 497 24,000 -1,008 Descending Chicago Center
Sat 07:24:44 PM 40.9319 -89.1656 30° Northeast 419 482 23,400 -1,317 Descending Chicago Center
Sat 07:25:46 PM 41.0231 -89.0944 30° Northeast 411 473 21,300 -2,146 Descending Chicago Center
Sat 07:26:47 PM 41.1175 -89.0208 30° Northeast 399 459 19,000 -2,146 Descending Chicago Center
Sat 07:27:49 PM 41.2083 -88.9494 31° Northeast 384 442 16,900 -2,274 Descending Chicago Center
Sat 07:28:51 PM 41.3153 -88.8622 31° Northeast 379 436 14,300 -2,585 Descending Chicago Center
Sat 07:29:52 PM 41.4019 -88.7947 30° Northeast 364 419 11,600 -1,610 Descending Chicago Center
Sat 07:30:54 PM 41.4908 -88.7242 31° Northeast 370 426 11,000 -293 Descending Chicago Center
Sat 07:31:55 PM 41.5492 -88.6128 55° Northeast 383 441 11,000  Level Chicago Center
Sat 07:32:57 PM 41.5989 -88.4872 62° Northeast 380 437 11,000  Level Chicago Center
Sat 07:33:59 PM 41.6617 -88.3758 53° Northeast 376 433 11,000  Level Chicago Center
Sat 07:35:00 PM 41.7253 -88.2656 52° Northeast 372 428 11,000 -341 Level Chicago Center
Sat 07:36:02 PM 41.7808 -88.1703 52° Northeast 326 375 10,300 -1,463 Descending Chicago Center
Sat 07:37:03 PM 41.8600 -88.1094 30° Northeast 298 343 8,000 -1,610 Descending Chicago Center
Sat 07:38:05 PM 41.9367 -88.1094 360° North 280 322 7,000 -537 Descending Chicago Center
Sat 07:39:06 PM 42.0119 -88.1111 359° North 273 314 6,900 -683 Descending Chicago Center
Sat 07:40:08 PM 42.0728 -88.1333 345° North 236 272 5,600 -1,258 Descending Chicago Center

Login

Don't have an account? Register now (free) for customized features, flight alerts, and more!